sensor_id;sensor_type;location;lat;lon;timestamp;P1;durP1;ratioP1;P2;durP2;ratioP2
55609;SDS011;41486;52.502;13.486;2023-03-02T00:01:20;13.48;;;5.97;;
55609;SDS011;41486;52.502;13.486;2023-03-02T00:03:52;11.68;;;4.90;;
55609;SDS011;41486;52.502;13.486;2023-03-02T00:06:20;13.20;;;6.03;;
55609;SDS011;41486;52.502;13.486;2023-03-02T00:08:48;9.85;;;5.35;;
55609;SDS011;41486;52.502;13.486;2023-03-02T00:11:16;9.57;;;5.90;;
55609;SDS011;41486;52.502;13.486;2023-03-02T00:13:46;11.10;;;5.20;;
55609;SDS011;41486;52.502;13.486;2023-03-02T00:16:14;12.10;;;6.20;;
55609;SDS011;41486;52.502;13.486;2023-03-02T00:18:42;11.82;;;5.85;;
55609;SDS011;41486;52.502;13.486;2023-03-02T00:21:11;12.10;;;5.63;;
55609;SDS011;41486;52.502;13.486;2023-03-02T00:23:39;9.27;;;5.25;;
55609;SDS011;41486;52.502;13.486;2023-03-02T00:26:07;11.73;;;5.18;;
55609;SDS011;41486;52.502;13.486;2023-03-02T00:28:36;12.82;;;4.85;;
55609;SDS011;41486;52.502;13.486;2023-03-02T00:31:04;9.38;;;4.95;;
55609;SDS011;41486;52.502;13.486;2023-03-02T00:33:32;9.75;;;5.00;;
55609;SDS011;41486;52.502;13.486;2023-03-02T00:36:01;9.73;;;5.15;;
55609;SDS011;41486;52.502;13.486;2023-03-02T00:38:30;9.68;;;5.25;;
55609;SDS011;41486;52.502;13.486;2023-03-02T00:40:58;9.80;;;5.20;;
55609;SDS011;41486;52.502;13.486;2023-03-02T00:43:27;7.80;;;4.22;;
55609;SDS011;41486;52.502;13.486;2023-03-02T00:45:55;11.38;;;4.38;;
55609;SDS011;41486;52.502;13.486;2023-03-02T00:48:24;7.05;;;4.28;;
55609;SDS011;41486;52.502;13.486;2023-03-02T00:50:52;8.23;;;4.28;;
55609;SDS011;41486;52.502;13.486;2023-03-02T00:53:20;6.82;;;4.53;;
55609;SDS011;41486;52.502;13.486;2023-03-02T00:55:52;6.50;;;4.03;;
55609;SDS011;41486;52.502;13.486;2023-03-02T00:58:22;10.80;;;4.82;;
55609;SDS011;41486;52.502;13.486;2023-03-02T01:00:53;13.20;;;4.88;;
55609;SDS011;41486;52.502;13.486;2023-03-02T01:03:22;10.63;;;5.00;;
55609;SDS011;41486;52.502;13.486;2023-03-02T01:05:50;7.28;;;4.25;;
55609;SDS011;41486;52.502;13.486;2023-03-02T01:08:20;7.13;;;4.25;;
55609;SDS011;41486;52.502;13.486;2023-03-02T01:10:50;7.88;;;4.35;;
55609;SDS011;41486;52.502;13.486;2023-03-02T01:13:21;10.20;;;4.97;;
55609;SDS011;41486;52.502;13.486;2023-03-02T01:15:58;6.53;;;4.20;;
55609;SDS011;41486;52.502;13.486;2023-03-02T01:18:27;7.45;;;4.28;;
55609;SDS011;41486;52.502;13.486;2023-03-02T01:21:01;11.73;;;5.43;;
55609;SDS011;41486;52.502;13.486;2023-03-02T01:23:29;15.50;;;4.90;;
55609;SDS011;41486;52.502;13.486;2023-03-02T01:25:57;8.13;;;4.55;;
55609;SDS011;41486;52.502;13.486;2023-03-02T01:28:26;12.50;;;4.78;;
55609;SDS011;41486;52.502;13.486;2023-03-02T01:30:54;9.10;;;4.80;;
55609;SDS011;41486;52.502;13.486;2023-03-02T01:33:22;7.63;;;4.57;;
55609;SDS011;41486;52.502;13.486;2023-03-02T01:35:50;8.00;;;4.65;;
55609;SDS011;41486;52.502;13.486;2023-03-02T01:38:18;11.80;;;5.60;;
55609;SDS011;41486;52.502;13.486;2023-03-02T01:40:49;11.90;;;4.60;;
55609;SDS011;41486;52.502;13.486;2023-03-02T01:43:17;10.68;;;5.80;;
55609;SDS011;41486;52.502;13.486;2023-03-02T01:45:49;9.10;;;4.00;;
55609;SDS011;41486;52.502;13.486;2023-03-02T01:48:41;8.05;;;4.80;;
55609;SDS011;41486;52.502;13.486;2023-03-02T01:51:16;9.00;;;4.57;;
55609;SDS011;41486;52.502;13.486;2023-03-02T01:53:48;7.85;;;4.53;;
55609;SDS011;41486;52.502;13.486;2023-03-02T01:56:22;8.82;;;4.70;;
55609;SDS011;41486;52.502;13.486;2023-03-02T01:58:55;12.70;;;5.65;;
55609;SDS011;41486;52.502;13.486;2023-03-02T02:01:29;12.02;;;5.95;;
55609;SDS011;41486;52.502;13.486;2023-03-02T02:03:58;8.18;;;4.80;;
55609;SDS011;41486;52.502;13.486;2023-03-02T02:06:28;9.20;;;4.70;;
55609;SDS011;41486;52.502;13.486;2023-03-02T02:08:59;9.30;;;4.63;;
55609;SDS011;41486;52.502;13.486;2023-03-02T02:11:30;9.07;;;4.55;;
55609;SDS011;41486;52.502;13.486;2023-03-02T02:13:58;9.75;;;4.95;;
55609;SDS011;41486;52.502;13.486;2023-03-02T02:16:30;7.65;;;4.78;;
55609;SDS011;41486;52.502;13.486;2023-03-02T02:19:00;8.18;;;5.80;;
55609;SDS011;41486;52.502;13.486;2023-03-02T02:21:29;9.85;;;5.45;;
55609;SDS011;41486;52.502;13.486;2023-03-02T02:24:01;9.93;;;4.53;;
55609;SDS011;41486;52.502;13.486;2023-03-02T02:26:37;13.75;;;6.22;;
55609;SDS011;41486;52.502;13.486;2023-03-02T02:29:09;10.05;;;4.90;;
55609;SDS011;41486;52.502;13.486;2023-03-02T02:31:41;10.65;;;5.05;;
55609;SDS011;41486;52.502;13.486;2023-03-02T02:34:15;9.70;;;5.53;;
55609;SDS011;41486;52.502;13.486;2023-03-02T02:36:50;7.97;;;4.38;;
55609;SDS011;41486;52.502;13.486;2023-03-02T02:39:24;9.18;;;5.13;;
55609;SDS011;41486;52.502;13.486;2023-03-02T02:41:57;10.35;;;5.60;;
55609;SDS011;41486;52.502;13.486;2023-03-02T02:44:28;9.55;;;4.97;;
55609;SDS011;41486;52.502;13.486;2023-03-02T02:46:58;11.35;;;5.22;;
55609;SDS011;41486;52.502;13.486;2023-03-02T02:49:28;11.32;;;6.13;;
55609;SDS011;41486;52.502;13.486;2023-03-02T02:51:58;9.90;;;5.13;;
55609;SDS011;41486;52.502;13.486;2023-03-02T02:54:27;9.43;;;4.88;;
55609;SDS011;41486;52.502;13.486;2023-03-02T02:56:59;10.43;;;5.53;;
55609;SDS011;41486;52.502;13.486;2023-03-02T02:59:30;9.15;;;5.88;;
55609;SDS011;41486;52.502;13.486;2023-03-02T03:02:02;9.80;;;4.95;;
55609;SDS011;41486;52.502;13.486;2023-03-02T03:04:33;7.82;;;5.28;;
55609;SDS011;41486;52.502;13.486;2023-03-02T03:07:01;11.52;;;6.15;;
55609;SDS011;41486;52.502;13.486;2023-03-02T03:09:31;8.77;;;5.70;;
55609;SDS011;41486;52.502;13.486;2023-03-02T03:12:02;9.73;;;5.15;;
55609;SDS011;41486;52.502;13.486;2023-03-02T03:14:35;10.23;;;5.60;;
55609;SDS011;41486;52.502;13.486;2023-03-02T03:17:08;12.70;;;6.18;;
55609;SDS011;41486;52.502;13.486;2023-03-02T03:19:58;7.80;;;4.70;;
55609;SDS011;41486;52.502;13.486;2023-03-02T03:22:34;12.40;;;5.70;;
55609;SDS011;41486;52.502;13.486;2023-03-02T03:25:05;11.75;;;5.68;;
55609;SDS011;41486;52.502;13.486;2023-03-02T03:27:35;13.55;;;6.82;;
55609;SDS011;41486;52.502;13.486;2023-03-02T03:30:03;9.98;;;5.63;;
55609;SDS011;41486;52.502;13.486;2023-03-02T03:32:33;11.75;;;5.75;;
55609;SDS011;41486;52.502;13.486;2023-03-02T03:35:03;13.23;;;5.68;;
55609;SDS011;41486;52.502;13.486;2023-03-02T03:37:34;11.95;;;5.68;;
55609;SDS011;41486;52.502;13.486;2023-03-02T03:40:07;10.02;;;6.18;;
55609;SDS011;41486;52.502;13.486;2023-03-02T03:42:40;9.80;;;5.78;;
55609;SDS011;41486;52.502;13.486;2023-03-02T03:45:08;12.13;;;6.50;;
55609;SDS011;41486;52.502;13.486;2023-03-02T03:47:37;14.57;;;6.28;;
55609;SDS011;41486;52.502;13.486;2023-03-02T03:50:07;10.13;;;5.55;;
55609;SDS011;41486;52.502;13.486;2023-03-02T03:52:36;10.27;;;6.57;;
55609;SDS011;41486;52.502;13.486;2023-03-02T03:55:13;15.02;;;6.38;;
55609;SDS011;41486;52.502;13.486;2023-03-02T03:57:44;15.20;;;6.05;;
55609;SDS011;41486;52.502;13.486;2023-03-02T04:00:13;11.05;;;5.50;;
55609;SDS011;41486;52.502;13.486;2023-03-02T04:02:52;13.93;;;6.28;;
55609;SDS011;41486;52.502;13.486;2023-03-02T04:05:21;13.52;;;6.47;;
55609;SDS011;41486;52.502;13.486;2023-03-02T04:07:52;17.55;;;6.75;;
55609;SDS011;41486;52.502;13.486;2023-03-02T04:10:21;14.85;;;7.55;;
55609;SDS011;41486;52.502;13.486;2023-03-02T04:12:52;16.67;;;7.25;;
55609;SDS011;41486;52.502;13.486;2023-03-02T04:15:21;14.77;;;6.40;;
55609;SDS011;41486;52.502;13.486;2023-03-02T04:17:50;16.88;;;8.00;;
55609;SDS011;41486;52.502;13.486;2023-03-02T04:20:20;20.67;;;7.15;;
55609;SDS011;41486;52.502;13.486;2023-03-02T04:22:52;15.23;;;7.07;;
55609;SDS011;41486;52.502;13.486;2023-03-02T04:25:23;15.93;;;6.93;;
55609;SDS011;41486;52.502;13.486;2023-03-02T04:27:59;15.93;;;7.68;;
55609;SDS011;41486;52.502;13.486;2023-03-02T04:30:31;13.27;;;6.68;;
55609;SDS011;41486;52.502;13.486;2023-03-02T04:32:59;15.73;;;6.70;;
55609;SDS011;41486;52.502;13.486;2023-03-02T04:35:28;12.68;;;7.68;;
55609;SDS011;41486;52.502;13.486;2023-03-02T04:37:58;17.15;;;6.65;;
55609;SDS011;41486;52.502;13.486;2023-03-02T04:40:26;15.13;;;7.10;;
55609;SDS011;41486;52.502;13.486;2023-03-02T04:42:54;16.13;;;7.68;;
55609;SDS011;41486;52.502;13.486;2023-03-02T04:45:24;19.98;;;9.30;;
55609;SDS011;41486;52.502;13.486;2023-03-02T04:47:54;14.45;;;8.07;;
55609;SDS011;41486;52.502;13.486;2023-03-02T04:50:22;18.20;;;8.68;;
55609;SDS011;41486;52.502;13.486;2023-03-02T04:52:50;25.13;;;8.73;;
55609;SDS011;41486;52.502;13.486;2023-03-02T04:55:20;17.50;;;7.97;;
55609;SDS011;41486;52.502;13.486;2023-03-02T04:57:49;21.95;;;8.65;;
55609;SDS011;41486;52.502;13.486;2023-03-02T05:00:17;16.48;;;8.85;;
55609;SDS011;41486;52.502;13.486;2023-03-02T05:02:48;18.90;;;8.90;;
55609;SDS011;41486;52.502;13.486;2023-03-02T05:05:19;23.77;;;9.68;;
55609;SDS011;41486;52.502;13.486;2023-03-02T05:07:49;19.63;;;9.77;;
55609;SDS011;41486;52.502;13.486;2023-03-02T05:10:18;15.43;;;9.02;;
55609;SDS011;41486;52.502;13.486;2023-03-02T05:12:47;23.48;;;9.43;;
55609;SDS011;41486;52.502;13.486;2023-03-02T05:15:24;12.52;;;7.97;;
55609;SDS011;41486;52.502;13.486;2023-03-02T05:17:55;16.52;;;8.45;;
55609;SDS011;41486;52.502;13.486;2023-03-02T05:20:24;12.48;;;8.00;;
55609;SDS011;41486;52.502;13.486;2023-03-02T05:22:53;15.52;;;8.15;;
55609;SDS011;41486;52.502;13.486;2023-03-02T05:25:22;17.10;;;8.57;;
55609;SDS011;41486;52.502;13.486;2023-03-02T05:27:50;19.33;;;9.40;;
55609;SDS011;41486;52.502;13.486;2023-03-02T05:30:19;23.35;;;8.60;;
55609;SDS011;41486;52.502;13.486;2023-03-02T05:32:51;20.75;;;8.80;;
55609;SDS011;41486;52.502;13.486;2023-03-02T05:35:21;19.23;;;10.20;;
55609;SDS011;41486;52.502;13.486;2023-03-02T05:37:49;18.58;;;10.18;;
55609;SDS011;41486;52.502;13.486;2023-03-02T05:40:18;25.50;;;11.82;;
55609;SDS011;41486;52.502;13.486;2023-03-02T05:42:47;26.40;;;11.05;;
55609;SDS011;41486;52.502;13.486;2023-03-02T05:45:18;24.42;;;11.07;;
55609;SDS011;41486;52.502;13.486;2023-03-02T05:47:47;25.08;;;11.75;;
55609;SDS011;41486;52.502;13.486;2023-03-02T05:50:15;24.20;;;10.93;;
55609;SDS011;41486;52.502;13.486;2023-03-02T05:52:45;25.60;;;11.77;;
55609;SDS011;41486;52.502;13.486;2023-03-02T05:55:14;22.05;;;10.73;;
55609;SDS011;41486;52.502;13.486;2023-03-02T05:57:43;23.77;;;11.70;;
55609;SDS011;41486;52.502;13.486;2023-03-02T06:00:15;24.77;;;11.73;;
55609;SDS011;41486;52.502;13.486;2023-03-02T06:02:44;21.92;;;12.27;;
55609;SDS011;41486;52.502;13.486;2023-03-02T06:05:12;19.77;;;10.95;;
55609;SDS011;41486;52.502;13.486;2023-03-02T06:07:42;22.63;;;11.52;;
55609;SDS011;41486;52.502;13.486;2023-03-02T06:10:12;24.58;;;12.82;;
55609;SDS011;41486;52.502;13.486;2023-03-02T06:12:40;21.67;;;10.90;;
55609;SDS011;41486;52.502;13.486;2023-03-02T06:15:09;22.75;;;11.70;;
55609;SDS011;41486;52.502;13.486;2023-03-02T06:17:37;22.60;;;11.23;;
55609;SDS011;41486;52.502;13.486;2023-03-02T06:20:06;27.70;;;11.00;;
55609;SDS011;41486;52.502;13.486;2023-03-02T06:22:37;21.15;;;11.20;;
55609;SDS011;41486;52.502;13.486;2023-03-02T06:25:07;22.38;;;11.63;;
55609;SDS011;41486;52.502;13.486;2023-03-02T06:27:38;22.65;;;11.18;;
55609;SDS011;41486;52.502;13.486;2023-03-02T06:30:07;27.85;;;12.70;;
55609;SDS011;41486;52.502;13.486;2023-03-02T06:32:38;24.98;;;13.18;;
55609;SDS011;41486;52.502;13.486;2023-03-02T06:35:07;19.70;;;10.77;;
55609;SDS011;41486;52.502;13.486;2023-03-02T06:37:36;18.95;;;10.82;;
55609;SDS011;41486;52.502;13.486;2023-03-02T06:40:05;26.50;;;11.50;;
55609;SDS011;41486;52.502;13.486;2023-03-02T06:42:36;29.50;;;13.45;;
55609;SDS011;41486;52.502;13.486;2023-03-02T06:45:06;24.42;;;11.98;;
55609;SDS011;41486;52.502;13.486;2023-03-02T06:47:35;22.90;;;10.88;;
55609;SDS011;41486;52.502;13.486;2023-03-02T06:50:03;22.55;;;11.60;;
55609;SDS011;41486;52.502;13.486;2023-03-02T06:52:33;22.92;;;11.32;;
55609;SDS011;41486;52.502;13.486;2023-03-02T06:55:05;19.48;;;10.45;;
55609;SDS011;41486;52.502;13.486;2023-03-02T06:57:34;29.27;;;14.10;;
55609;SDS011;41486;52.502;13.486;2023-03-02T07:00:04;24.00;;;11.68;;
55609;SDS011;41486;52.502;13.486;2023-03-02T07:02:43;25.60;;;13.33;;
55609;SDS011;41486;52.502;13.486;2023-03-02T07:05:11;24.73;;;11.88;;
55609;SDS011;41486;52.502;13.486;2023-03-02T07:07:39;27.77;;;13.18;;
55609;SDS011;41486;52.502;13.486;2023-03-02T07:10:08;26.40;;;12.97;;
55609;SDS011;41486;52.502;13.486;2023-03-02T07:12:37;25.97;;;12.00;;
55609;SDS011;41486;52.502;13.486;2023-03-02T07:15:08;26.87;;;12.40;;
55609;SDS011;41486;52.502;13.486;2023-03-02T07:17:39;24.33;;;12.47;;
55609;SDS011;41486;52.502;13.486;2023-03-02T07:20:10;22.73;;;12.57;;
55609;SDS011;41486;52.502;13.486;2023-03-02T07:22:39;19.85;;;10.43;;
55609;SDS011;41486;52.502;13.486;2023-03-02T07:25:08;25.20;;;12.40;;
55609;SDS011;41486;52.502;13.486;2023-03-02T07:27:39;18.30;;;10.00;;
55609;SDS011;41486;52.502;13.486;2023-03-02T07:30:10;28.90;;;11.03;;
55609;SDS011;41486;52.502;13.486;2023-03-02T07:32:40;26.77;;;10.97;;
55609;SDS011;41486;52.502;13.486;2023-03-02T07:35:09;32.67;;;13.52;;
55609;SDS011;41486;52.502;13.486;2023-03-02T07:37:37;26.70;;;10.73;;
55609;SDS011;41486;52.502;13.486;2023-03-02T07:40:05;24.95;;;10.65;;
55609;SDS011;41486;52.502;13.486;2023-03-02T07:42:34;26.07;;;10.53;;
55609;SDS011;41486;52.502;13.486;2023-03-02T07:45:02;25.67;;;11.73;;
55609;SDS011;41486;52.502;13.486;2023-03-02T07:47:32;22.65;;;10.82;;
55609;SDS011;41486;52.502;13.486;2023-03-02T07:50:00;29.50;;;11.83;;
55609;SDS011;41486;52.502;13.486;2023-03-02T07:52:31;26.43;;;11.07;;
55609;SDS011;41486;52.502;13.486;2023-03-02T07:55:00;28.42;;;12.93;;
55609;SDS011;41486;52.502;13.486;2023-03-02T07:57:28;31.25;;;12.90;;
55609;SDS011;41486;52.502;13.486;2023-03-02T07:59:56;38.03;;;14.23;;
55609;SDS011;41486;52.502;13.486;2023-03-02T08:02:24;42.50;;;15.60;;
55609;SDS011;41486;52.502;13.486;2023-03-02T08:04:53;29.88;;;12.68;;
55609;SDS011;41486;52.502;13.486;2023-03-02T08:07:22;34.97;;;13.52;;
55609;SDS011;41486;52.502;13.486;2023-03-02T08:09:51;28.00;;;11.65;;
55609;SDS011;41486;52.502;13.486;2023-03-02T08:12:19;32.03;;;12.05;;
55609;SDS011;41486;52.502;13.486;2023-03-02T08:14:47;29.90;;;12.80;;
55609;SDS011;41486;52.502;13.486;2023-03-02T08:17:15;37.70;;;14.82;;
55609;SDS011;41486;52.502;13.486;2023-03-02T08:19:43;34.33;;;13.88;;
55609;SDS011;41486;52.502;13.486;2023-03-02T08:22:13;44.65;;;17.45;;
55609;SDS011;41486;52.502;13.486;2023-03-02T08:24:41;44.17;;;19.40;;
55609;SDS011;41486;52.502;13.486;2023-03-02T08:27:11;32.80;;;14.90;;
55609;SDS011;41486;52.502;13.486;2023-03-02T08:29:40;42.63;;;17.48;;
55609;SDS011;41486;52.502;13.486;2023-03-02T08:32:08;45.10;;;19.13;;
55609;SDS011;41486;52.502;13.486;2023-03-02T08:34:37;49.75;;;16.48;;
55609;SDS011;41486;52.502;13.486;2023-03-02T08:37:05;52.50;;;17.80;;
55609;SDS011;41486;52.502;13.486;2023-03-02T08:39:34;79.45;;;24.13;;
55609;SDS011;41486;52.502;13.486;2023-03-02T08:42:02;76.82;;;29.33;;
55609;SDS011;41486;52.502;13.486;2023-03-02T08:44:30;88.70;;;28.33;;
55609;SDS011;41486;52.502;13.486;2023-03-02T08:46:59;64.60;;;23.17;;
55609;SDS011;41486;52.502;13.486;2023-03-02T08:49:28;67.95;;;22.92;;
55609;SDS011;41486;52.502;13.486;2023-03-02T08:51:57;54.60;;;19.75;;
55609;SDS011;41486;52.502;13.486;2023-03-02T08:54:26;54.88;;;18.35;;
55609;SDS011;41486;52.502;13.486;2023-03-02T08:56:55;42.65;;;16.05;;
55609;SDS011;41486;52.502;13.486;2023-03-02T08:59:23;41.83;;;16.00;;
55609;SDS011;41486;52.502;13.486;2023-03-02T09:01:52;50.38;;;18.90;;
55609;SDS011;41486;52.502;13.486;2023-03-02T09:04:20;36.70;;;15.60;;
55609;SDS011;41486;52.502;13.486;2023-03-02T09:06:48;47.70;;;17.80;;
55609;SDS011;41486;52.502;13.486;2023-03-02T09:09:16;52.28;;;20.02;;
55609;SDS011;41486;52.502;13.486;2023-03-02T09:11:44;44.90;;;19.45;;
55609;SDS011;41486;52.502;13.486;2023-03-02T09:14:14;43.22;;;17.58;;
55609;SDS011;41486;52.502;13.486;2023-03-02T09:16:42;33.65;;;14.35;;
55609;SDS011;41486;52.502;13.486;2023-03-02T09:19:11;38.10;;;17.52;;
55609;SDS011;41486;52.502;13.486;2023-03-02T09:24:35;44.08;;;16.25;;
55609;SDS011;41486;52.502;13.486;2023-03-02T09:27:13;36.25;;;14.68;;
55609;SDS011;41486;52.502;13.486;2023-03-02T09:29:43;44.80;;;16.00;;
55609;SDS011;41486;52.502;13.486;2023-03-02T09:32:11;47.95;;;18.75;;
55609;SDS011;41486;52.502;13.486;2023-03-02T09:34:43;44.72;;;15.63;;
55609;SDS011;41486;52.502;13.486;2023-03-02T09:37:13;46.05;;;18.15;;
55609;SDS011;41486;52.502;13.486;2023-03-02T09:39:42;45.97;;;15.80;;
55609;SDS011;41486;52.502;13.486;2023-03-02T09:42:18;37.00;;;13.13;;
55609;SDS011;41486;52.502;13.486;2023-03-02T09:45:20;25.27;;;12.45;;
55609;SDS011;41486;52.502;13.486;2023-03-02T09:48:04;32.38;;;12.55;;
55609;SDS011;41486;52.502;13.486;2023-03-02T09:50:44;27.48;;;12.25;;
55609;SDS011;41486;52.502;13.486;2023-03-02T09:53:23;28.40;;;12.18;;
55609;SDS011;41486;52.502;13.486;2023-03-02T09:56:01;26.85;;;13.10;;
55609;SDS011;41486;52.502;13.486;2023-03-02T09:58:30;43.67;;;11.80;;
55609;SDS011;41486;52.502;13.486;2023-03-02T10:01:05;31.17;;;13.95;;
55609;SDS011;41486;52.502;13.486;2023-03-02T10:03:44;28.63;;;12.88;;
55609;SDS011;41486;52.502;13.486;2023-03-02T10:06:19;22.20;;;10.43;;
55609;SDS011;41486;52.502;13.486;2023-03-02T10:08:50;30.63;;;14.30;;
55609;SDS011;41486;52.502;13.486;2023-03-02T10:11:21;29.67;;;13.23;;
55609;SDS011;41486;52.502;13.486;2023-03-02T10:13:59;36.85;;;15.23;;
55609;SDS011;41486;52.502;13.486;2023-03-02T10:16:35;30.88;;;14.63;;
55609;SDS011;41486;52.502;13.486;2023-03-02T10:19:12;14.27;;;7.80;;
55609;SDS011;41486;52.502;13.486;2023-03-02T10:21:51;15.68;;;7.95;;
55609;SDS011;41486;52.502;13.486;2023-03-02T10:24:27;33.40;;;17.05;;
55609;SDS011;41486;52.502;13.486;2023-03-02T10:26:59;29.02;;;13.88;;
55609;SDS011;41486;52.502;13.486;2023-03-02T10:29:41;24.42;;;10.25;;
55609;SDS011;41486;52.502;13.486;2023-03-02T10:32:19;26.55;;;12.50;;
55609;SDS011;41486;52.502;13.486;2023-03-02T10:34:50;38.42;;;13.63;;
55609;SDS011;41486;52.502;13.486;2023-03-02T10:37:21;30.08;;;13.75;;
55609;SDS011;41486;52.502;13.486;2023-03-02T10:39:51;27.10;;;11.73;;
55609;SDS011;41486;52.502;13.486;2023-03-02T10:42:20;27.75;;;11.43;;
55609;SDS011;41486;52.502;13.486;2023-03-02T10:44:53;16.48;;;7.45;;
55609;SDS011;41486;52.502;13.486;2023-03-02T10:47:25;16.92;;;8.15;;
55609;SDS011;41486;52.502;13.486;2023-03-02T10:49:55;12.38;;;6.93;;
55609;SDS011;41486;52.502;13.486;2023-03-02T10:52:24;12.63;;;7.22;;
55609;SDS011;41486;52.502;13.486;2023-03-02T10:55:00;14.95;;;7.47;;
55609;SDS011;41486;52.502;13.486;2023-03-02T10:57:34;14.52;;;8.10;;
55609;SDS011;41486;52.502;13.486;2023-03-02T11:00:05;21.75;;;10.35;;
55609;SDS011;41486;52.502;13.486;2023-03-02T11:02:50;11.65;;;6.35;;
55609;SDS011;41486;52.502;13.486;2023-03-02T11:05:21;14.88;;;8.23;;
55609;SDS011;41486;52.502;13.486;2023-03-02T11:07:55;16.48;;;7.60;;
55609;SDS011;41486;52.502;13.486;2023-03-02T11:10:25;14.10;;;7.63;;
55609;SDS011;41486;52.502;13.486;2023-03-02T11:12:58;12.95;;;7.05;;
55609;SDS011;41486;52.502;13.486;2023-03-02T11:15:32;17.58;;;9.07;;
55609;SDS011;41486;52.502;13.486;2023-03-02T11:18:06;16.30;;;7.78;;
55609;SDS011;41486;52.502;13.486;2023-03-02T11:20:47;13.63;;;7.93;;
55609;SDS011;41486;52.502;13.486;2023-03-02T11:23:23;17.92;;;9.18;;
55609;SDS011;41486;52.502;13.486;2023-03-02T11:26:00;23.45;;;11.55;;
55609;SDS011;41486;52.502;13.486;2023-03-02T11:28:34;22.63;;;12.60;;
55609;SDS011;41486;52.502;13.486;2023-03-02T11:31:15;27.55;;;13.65;;
55609;SDS011;41486;52.502;13.486;2023-03-02T11:33:56;25.23;;;13.60;;
55609;SDS011;41486;52.502;13.486;2023-03-02T11:36:44;20.55;;;10.43;;
55609;SDS011;41486;52.502;13.486;2023-03-02T11:39:21;20.35;;;9.82;;
55609;SDS011;41486;52.502;13.486;2023-03-02T11:41:55;24.70;;;10.35;;
55609;SDS011;41486;52.502;13.486;2023-03-02T11:44:23;27.48;;;14.07;;
55609;SDS011;41486;52.502;13.486;2023-03-02T11:46:55;30.17;;;15.35;;
55609;SDS011;41486;52.502;13.486;2023-03-02T11:49:34;28.27;;;13.07;;
55609;SDS011;41486;52.502;13.486;2023-03-02T11:52:08;31.70;;;14.02;;
55609;SDS011;41486;52.502;13.486;2023-03-02T11:54:44;34.00;;;16.02;;
55609;SDS011;41486;52.502;13.486;2023-03-02T11:57:17;30.88;;;15.05;;
55609;SDS011;41486;52.502;13.486;2023-03-02T11:59:48;35.22;;;14.82;;
55609;SDS011;41486;52.502;13.486;2023-03-02T12:02:17;30.05;;;15.52;;
55609;SDS011;41486;52.502;13.486;2023-03-02T12:04:48;23.77;;;12.05;;
55609;SDS011;41486;52.502;13.486;2023-03-02T12:07:17;21.10;;;11.32;;
55609;SDS011;41486;52.502;13.486;2023-03-02T12:09:56;15.68;;;9.23;;
55609;SDS011;41486;52.502;13.486;2023-03-02T12:12:32;15.68;;;8.45;;
55609;SDS011;41486;52.502;13.486;2023-03-02T12:15:25;13.98;;;8.77;;
55609;SDS011;41486;52.502;13.486;2023-03-02T12:20:58;15.07;;;8.52;;
55609;SDS011;41486;52.502;13.486;2023-03-02T12:23:31;16.73;;;8.63;;
55609;SDS011;41486;52.502;13.486;2023-03-02T12:26:04;14.80;;;8.45;;
55609;SDS011;41486;52.502;13.486;2023-03-02T12:28:35;15.82;;;9.85;;
55609;SDS011;41486;52.502;13.486;2023-03-02T12:31:06;15.07;;;8.68;;
55609;SDS011;41486;52.502;13.486;2023-03-02T12:33:46;20.02;;;10.88;;
55609;SDS011;41486;52.502;13.486;2023-03-02T12:36:18;16.67;;;9.27;;
55609;SDS011;41486;52.502;13.486;2023-03-02T12:38:59;18.85;;;9.07;;
55609;SDS011;41486;52.502;13.486;2023-03-02T12:41:48;12.10;;;7.07;;
55609;SDS011;41486;52.502;13.486;2023-03-02T13:16:03;63.72;;;33.30;;
55609;SDS011;41486;52.502;13.486;2023-03-02T13:18:35;12.43;;;5.45;;
55609;SDS011;41486;52.502;13.486;2023-03-02T13:21:05;9.45;;;5.70;;
55609;SDS011;41486;52.502;13.486;2023-03-02T13:23:43;11.68;;;6.45;;
55609;SDS011;41486;52.502;13.486;2023-03-02T13:26:19;12.95;;;7.38;;
55609;SDS011;41486;52.502;13.486;2023-03-02T13:28:59;17.17;;;8.57;;
55609;SDS011;41486;52.502;13.486;2023-03-02T13:31:32;15.50;;;8.23;;
55609;SDS011;41486;52.502;13.486;2023-03-02T13:34:01;18.60;;;9.38;;
55609;SDS011;41486;52.502;13.486;2023-03-02T13:36:32;14.27;;;8.45;;
55609;SDS011;41486;52.502;13.486;2023-03-02T13:39:04;16.00;;;8.27;;
55609;SDS011;41486;52.502;13.486;2023-03-02T13:41:35;15.85;;;8.10;;
55609;SDS011;41486;52.502;13.486;2023-03-02T13:44:15;9.25;;;5.85;;
55609;SDS011;41486;52.502;13.486;2023-03-02T13:46:50;14.88;;;7.38;;
55609;SDS011;41486;52.502;13.486;2023-03-02T13:49:26;14.02;;;7.68;;
55609;SDS011;41486;52.502;13.486;2023-03-02T13:51:56;18.83;;;9.48;;
55609;SDS011;41486;52.502;13.486;2023-03-02T13:54:29;21.23;;;10.57;;
55609;SDS011;41486;52.502;13.486;2023-03-02T13:57:00;23.00;;;10.50;;
55609;SDS011;41486;52.502;13.486;2023-03-02T13:59:30;13.40;;;7.90;;
55609;SDS011;41486;52.502;13.486;2023-03-02T14:02:05;12.02;;;5.90;;
55609;SDS011;41486;52.502;13.486;2023-03-02T14:04:45;21.20;;;8.18;;
55609;SDS011;41486;52.502;13.486;2023-03-02T14:07:13;16.13;;;9.10;;
55609;SDS011;41486;52.502;13.486;2023-03-02T14:09:43;16.90;;;9.38;;
55609;SDS011;41486;52.502;13.486;2023-03-02T14:12:12;14.45;;;7.82;;
55609;SDS011;41486;52.502;13.486;2023-03-02T14:14:48;13.88;;;7.93;;
55609;SDS011;41486;52.502;13.486;2023-03-02T14:17:21;13.57;;;7.18;;
55609;SDS011;41486;52.502;13.486;2023-03-02T14:19:54;13.55;;;8.10;;
55609;SDS011;41486;52.502;13.486;2023-03-02T14:22:24;13.05;;;6.78;;
55609;SDS011;41486;52.502;13.486;2023-03-02T14:24:55;10.38;;;5.20;;
55609;SDS011;41486;52.502;13.486;2023-03-02T14:27:23;10.38;;;5.18;;
55609;SDS011;41486;52.502;13.486;2023-03-02T14:29:55;13.80;;;6.00;;
55609;SDS011;41486;52.502;13.486;2023-03-02T14:32:24;8.07;;;4.95;;
55609;SDS011;41486;52.502;13.486;2023-03-02T14:34:53;19.90;;;7.55;;
55609;SDS011;41486;52.502;13.486;2023-03-02T14:37:22;18.42;;;9.30;;
55609;SDS011;41486;52.502;13.486;2023-03-02T14:39:55;13.70;;;8.00;;
55609;SDS011;41486;52.502;13.486;2023-03-02T14:42:27;23.35;;;10.70;;
55609;SDS011;41486;52.502;13.486;2023-03-02T14:44:55;18.52;;;10.05;;
55609;SDS011;41486;52.502;13.486;2023-03-02T14:47:26;21.75;;;10.48;;
55609;SDS011;41486;52.502;13.486;2023-03-02T14:49:54;21.08;;;8.65;;
55609;SDS011;41486;52.502;13.486;2023-03-02T14:52:25;17.42;;;8.38;;
55609;SDS011;41486;52.502;13.486;2023-03-02T14:54:58;21.20;;;10.32;;
55609;SDS011;41486;52.502;13.486;2023-03-02T14:57:31;20.55;;;10.43;;
55609;SDS011;41486;52.502;13.486;2023-03-02T15:00:02;21.23;;;9.38;;
55609;SDS011;41486;52.502;13.486;2023-03-02T15:02:33;25.63;;;10.23;;
55609;SDS011;41486;52.502;13.486;2023-03-02T15:05:03;23.40;;;11.73;;
55609;SDS011;41486;52.502;13.486;2023-03-02T15:07:32;25.58;;;12.00;;
55609;SDS011;41486;52.502;13.486;2023-03-02T15:10:00;33.80;;;13.75;;
55609;SDS011;41486;52.502;13.486;2023-03-02T15:12:28;30.77;;;14.25;;
55609;SDS011;41486;52.502;13.486;2023-03-02T15:14:56;36.65;;;13.50;;
55609;SDS011;41486;52.502;13.486;2023-03-02T15:17:24;38.38;;;14.68;;
55609;SDS011;41486;52.502;13.486;2023-03-02T15:19:53;38.20;;;15.75;;